createdAt,value
2022-08-02T00:00:15.818Z,7.90
2022-08-02T00:02:46.177Z,6.22
2022-08-02T00:05:14.733Z,6.22
2022-08-02T00:07:42.997Z,6.45
2022-08-02T00:10:12.467Z,6.30
2022-08-02T00:12:40.747Z,5.78
2022-08-02T00:15:10.542Z,6.45
2022-08-02T00:17:45.549Z,6.93
2022-08-02T00:20:15.418Z,6.60
2022-08-02T00:22:43.156Z,6.05
2022-08-02T00:25:10.995Z,6.85
2022-08-02T00:27:38.819Z,7.40
2022-08-02T00:30:07.499Z,6.95
2022-08-02T00:32:35.279Z,7.18
2022-08-02T00:35:04.880Z,7.97
2022-08-02T00:37:32.628Z,7.13
2022-08-02T00:40:02.141Z,7.40
2022-08-02T00:42:29.805Z,7.90
2022-08-02T00:44:58.852Z,7.90
2022-08-02T00:47:26.616Z,8.30
2022-08-02T00:49:54.308Z,7.45
2022-08-02T00:52:23.639Z,8.35
2022-08-02T00:54:51.653Z,8.80
2022-08-02T00:57:19.439Z,8.50
2022-08-02T00:59:47.325Z,7.75
2022-08-02T01:02:15.404Z,8.38
2022-08-02T01:04:43.337Z,8.80
2022-08-02T01:07:13.035Z,8.55
2022-08-02T01:09:43.101Z,9.55
2022-08-02T01:12:11.979Z,9.15
2022-08-02T01:14:41.643Z,8.85
2022-08-02T01:17:13.285Z,8.73
2022-08-02T01:19:50.446Z,9.27
2022-08-02T01:23:00.477Z,10.13
2022-08-02T01:25:49.893Z,9.63
2022-08-02T01:28:34.158Z,11.75
2022-08-02T01:31:05.611Z,11.27
2022-08-02T01:33:39.042Z,9.77
2022-08-02T01:36:12.726Z,9.20
2022-08-02T01:38:43.880Z,9.90
2022-08-02T01:41:16.185Z,10.18
2022-08-02T01:43:47.575Z,8.85
2022-08-02T01:46:17.698Z,8.60
2022-08-02T01:48:48.392Z,9.77
2022-08-02T01:51:19.638Z,7.65
2022-08-02T01:53:50.960Z,8.00
2022-08-02T01:56:20.584Z,8.35
2022-08-02T01:58:50.860Z,7.60
2022-08-02T02:01:22.348Z,7.28
2022-08-02T02:03:50.779Z,7.75
2022-08-02T02:06:19.957Z,6.72
2022-08-02T02:08:50.381Z,7.97
2022-08-02T02:12:11.629Z,6.35
2022-08-02T02:14:09.196Z,6.30
2022-08-02T02:16:38.306Z,6.45
2022-08-02T02:19:08.138Z,7.18
2022-08-02T02:21:36.142Z,7.55
2022-08-02T02:24:05.832Z,7.88
2022-08-02T02:26:37.448Z,8.43
2022-08-02T02:29:12.655Z,8.75
2022-08-02T02:31:43.769Z,9.47
2022-08-02T02:34:15.691Z,9.75
2022-08-02T02:36:51.389Z,9.00
2022-08-02T02:39:23.277Z,9.48
2022-08-02T02:41:54.315Z,8.65
2022-08-02T02:44:23.928Z,8.60
2022-08-02T02:46:54.910Z,9.07
2022-08-02T02:49:24.100Z,8.90
2022-08-02T02:51:53.059Z,9.85
2022-08-02T02:54:32.812Z,8.65
2022-08-02T02:57:03.624Z,9.32
2022-08-02T02:59:34.107Z,9.95
2022-08-02T03:02:03.437Z,9.73
2022-08-02T03:04:55.227Z,9.13
2022-08-02T03:07:19.954Z,9.07
2022-08-02T03:09:54.018Z,9.15
2022-08-02T03:12:27.184Z,8.23
2022-08-02T03:15:00.789Z,9.55
2022-08-02T03:17:38.795Z,9.57
2022-08-02T03:20:10.644Z,9.25
2022-08-02T03:22:38.505Z,9.27
2022-08-02T03:25:07.596Z,8.68
2022-08-02T03:27:36.566Z,8.55
2022-08-02T03:30:07.827Z,9.35
2022-08-02T03:32:37.213Z,10.17
2022-08-02T03:35:07.858Z,10.75
2022-08-02T03:37:38.027Z,11.55
2022-08-02T03:40:09.539Z,11.20
2022-08-02T03:42:37.378Z,10.85
2022-08-02T03:45:10.125Z,9.65
2022-08-02T03:47:39.094Z,9.85
2022-08-02T03:50:08.671Z,9.80
2022-08-02T03:52:37.519Z,9.88
2022-08-02T03:55:05.909Z,10.25
2022-08-02T03:57:33.913Z,9.88
2022-08-02T04:00:01.622Z,10.45
2022-08-02T04:02:30.718Z,10.70
2022-08-02T04:04:58.430Z,9.35
2022-08-02T04:08:02.567Z,9.68
2022-08-02T04:10:13.876Z,8.65
2022-08-02T04:12:41.920Z,8.77
2022-08-02T04:15:12.824Z,8.27
2022-08-02T04:17:44.720Z,7.70
2022-08-02T04:20:18.947Z,7.82
2022-08-02T04:22:50.389Z,8.20
2022-08-02T04:25:21.158Z,8.25
2022-08-02T04:28:16.542Z,8.50
2022-08-02T04:30:47.308Z,8.13
2022-08-02T04:33:16.931Z,8.40
2022-08-02T04:35:45.516Z,7.53
2022-08-02T04:38:14.609Z,6.70
2022-08-02T04:40:50.694Z,7.13
2022-08-02T04:43:18.400Z,6.05
2022-08-02T04:45:48.039Z,6.05
2022-08-02T04:48:17.140Z,7.55
2022-08-02T04:50:44.995Z,6.50
2022-08-02T04:53:12.772Z,7.28
2022-08-02T04:55:40.521Z,6.90
2022-08-02T04:58:30.167Z,7.40
2022-08-02T05:00:56.081Z,6.93
2022-08-02T05:03:25.238Z,7.72
2022-08-02T05:05:52.935Z,6.55
2022-08-02T05:08:20.669Z,6.57
2022-08-02T05:10:48.509Z,6.45
2022-08-02T05:13:16.307Z,6.97
2022-08-02T05:15:44.062Z,6.70
2022-08-02T05:18:12.317Z,7.15
2022-08-02T05:20:42.381Z,6.72
2022-08-02T05:23:10.083Z,6.20
2022-08-02T05:25:37.858Z,6.00
2022-08-02T05:28:11.025Z,6.60
2022-08-02T05:30:39.412Z,6.00
2022-08-02T05:33:07.183Z,6.38
2022-08-02T05:35:35.143Z,9.00
2022-08-02T05:38:04.252Z,6.43
2022-08-02T05:40:32.319Z,5.70
2022-08-02T05:43:00.082Z,5.65
2022-08-02T05:45:28.015Z,5.30
2022-08-02T05:47:55.886Z,5.00
2022-08-02T05:50:24.275Z,5.38
2022-08-02T05:52:59.250Z,5.03
2022-08-02T05:55:31.226Z,5.93
2022-08-02T05:58:07.409Z,5.30
2022-08-02T06:00:36.415Z,5.60
2022-08-02T06:03:21.795Z,5.88
2022-08-02T06:06:06.958Z,5.38
2022-08-02T06:08:39.382Z,5.40
2022-08-02T06:11:13.334Z,5.07
2022-08-02T06:13:42.174Z,5.10
2022-08-02T06:16:14.046Z,7.35
2022-08-02T06:18:44.030Z,4.55
2022-08-02T06:22:34.858Z,4.30
2022-08-02T06:24:00.265Z,4.95
2022-08-02T06:26:29.652Z,4.38
2022-08-02T06:28:59.009Z,4.40
2022-08-02T06:31:26.907Z,4.55
2022-08-02T06:33:54.653Z,4.47
2022-08-02T06:36:33.143Z,3.80
2022-08-02T06:39:04.644Z,3.20
2022-08-02T06:41:41.140Z,2.63
2022-08-02T06:44:45.052Z,2.97
2022-08-02T06:47:11.314Z,2.50
2022-08-02T06:49:52.879Z,2.88
2022-08-02T06:52:27.870Z,2.58
2022-08-02T06:54:56.838Z,2.53
2022-08-02T06:57:25.958Z,2.80
2022-08-02T06:59:53.740Z,2.55
2022-08-02T07:02:21.762Z,3.15
2022-08-02T07:04:49.614Z,2.55
2022-08-02T07:07:17.395Z,2.28
2022-08-02T07:09:56.388Z,2.90
2022-08-02T07:12:31.401Z,2.60
2022-08-02T07:14:59.677Z,9.05
2022-08-02T07:17:27.758Z,2.60
2022-08-02T07:19:55.570Z,3.30
2022-08-02T07:22:24.482Z,2.50
2022-08-02T07:24:52.734Z,2.35
2022-08-02T07:27:21.454Z,2.90
2022-08-02T07:29:50.548Z,2.83
2022-08-02T07:32:18.881Z,3.80
2022-08-02T07:34:51.159Z,4.18
2022-08-02T07:37:35.711Z,5.78
2022-08-02T07:40:13.396Z,4.30
2022-08-02T07:42:42.525Z,4.45
2022-08-02T07:45:12.401Z,4.35
2022-08-02T07:47:40.382Z,3.80
2022-08-02T07:50:09.771Z,4.40
2022-08-02T07:52:37.894Z,4.25
2022-08-02T07:55:06.900Z,4.60
2022-08-02T07:57:34.736Z,4.28
2022-08-02T08:00:02.580Z,5.50
2022-08-02T08:02:31.708Z,4.63
2022-08-02T08:04:59.428Z,4.35
2022-08-02T08:07:27.217Z,4.50
2022-08-02T08:09:56.569Z,4.40
2022-08-02T08:12:24.800Z,4.00
2022-08-02T08:14:52.684Z,3.72
2022-08-02T08:17:20.649Z,3.60
2022-08-02T08:19:53.242Z,4.05
2022-08-02T08:22:21.277Z,3.88
2022-08-02T08:24:49.116Z,4.00
2022-08-02T08:27:17.436Z,3.72
2022-08-02T08:29:46.209Z,3.65
2022-08-02T08:32:17.663Z,3.80
2022-08-02T08:34:46.418Z,3.58
2022-08-02T08:37:17.701Z,3.58
2022-08-02T08:39:56.224Z,3.47
2022-08-02T08:42:25.823Z,3.47
2022-08-02T08:44:53.632Z,2.85
2022-08-02T08:47:24.549Z,3.50
2022-08-02T08:49:56.806Z,3.43
2022-08-02T08:52:28.190Z,3.05
2022-08-02T08:54:57.495Z,3.55
2022-08-02T08:57:30.658Z,3.63
2022-08-02T08:59:58.592Z,3.28
2022-08-02T09:02:28.451Z,3.60
2022-08-02T09:04:59.293Z,3.97
2022-08-02T09:07:28.451Z,3.08
2022-08-02T09:09:58.646Z,3.67
2022-08-02T09:12:26.679Z,3.22
2022-08-02T09:14:54.430Z,3.20
2022-08-02T09:17:22.342Z,3.22
2022-08-02T09:20:07.845Z,2.95
2022-08-02T09:22:37.067Z,2.95
2022-08-02T09:25:06.190Z,3.30
2022-08-02T09:27:38.088Z,2.90
2022-08-02T09:30:16.679Z,2.83
2022-08-02T09:32:47.970Z,3.13
2022-08-02T09:36:06.103Z,2.67
2022-08-02T09:38:22.221Z,2.55
2022-08-02T09:43:20.848Z,2.67
2022-08-02T09:45:48.605Z,24.80
2022-08-02T09:48:16.326Z,3.40
2022-08-02T09:50:46.327Z,2.63
2022-08-02T09:53:14.697Z,2.30
2022-08-02T09:55:43.882Z,2.50
2022-08-02T09:58:21.384Z,2.38
2022-08-02T10:00:56.455Z,2.72
2022-08-02T10:03:26.768Z,2.58
2022-08-02T10:06:04.312Z,3.03
2022-08-02T10:08:33.814Z,2.88
2022-08-02T10:11:03.497Z,3.00
2022-08-02T10:13:33.072Z,2.78
2022-08-02T10:16:02.458Z,2.90
2022-08-02T10:18:39.952Z,3.22
2022-08-02T10:21:11.378Z,2.58
2022-08-02T10:23:41.086Z,2.73
2022-08-02T10:26:10.937Z,3.13
2022-08-02T10:28:38.887Z,2.80
2022-08-02T10:31:08.653Z,2.90
2022-08-02T10:33:39.308Z,2.63
2022-08-02T10:36:10.041Z,2.77
2022-08-02T10:38:38.637Z,2.72
2022-08-02T10:41:07.998Z,2.80
2022-08-02T10:43:45.804Z,3.20
2022-08-02T10:46:24.274Z,2.90
2022-08-02T10:52:07.483Z,3.20
2022-08-02T10:54:37.875Z,3.15
2022-08-02T10:57:16.310Z,2.90
2022-08-02T10:59:45.891Z,2.80
2022-08-02T11:02:15.032Z,2.78
2022-08-02T11:05:16.569Z,2.72
2022-08-02T11:07:47.882Z,2.70
2022-08-02T11:10:38.280Z,2.92
2022-08-02T11:13:08.902Z,3.15
2022-08-02T11:15:59.029Z,3.30
2022-08-02T11:18:59.733Z,2.80
2022-08-02T11:21:28.873Z,4.60
2022-08-02T11:23:57.437Z,2.80
2022-08-02T11:26:45.355Z,2.40
2022-08-02T11:29:15.890Z,2.65
2022-08-02T11:31:46.611Z,2.80
2022-08-02T11:34:36.373Z,2.00
2022-08-02T11:37:03.128Z,2.42
2022-08-02T11:39:30.950Z,2.47
2022-08-02T11:42:00.523Z,2.17
2022-08-02T11:44:30.163Z,2.25
2022-08-02T11:47:00.670Z,2.30
2022-08-02T11:49:29.163Z,2.20
2022-08-02T11:52:01.021Z,1.90
2022-08-02T11:54:32.372Z,2.00
2022-08-02T11:57:20.268Z,2.17
2022-08-02T11:59:49.672Z,2.13
2022-08-02T12:02:19.629Z,1.67
2022-08-02T12:04:58.010Z,2.22
2022-08-02T12:07:35.324Z,1.83
2022-08-02T12:10:06.884Z,2.28
2022-08-02T12:12:34.933Z,1.75
2022-08-02T12:15:02.715Z,1.95
2022-08-02T12:17:49.358Z,2.38
2022-08-02T12:20:17.622Z,2.50
2022-08-02T12:22:45.452Z,2.05
2022-08-02T12:25:33.532Z,2.00
2022-08-02T12:28:17.755Z,2.83
2022-08-02T12:30:57.997Z,2.17
2022-08-02T12:33:28.876Z,1.90
2022-08-02T12:35:58.240Z,1.88
2022-08-02T12:38:25.957Z,1.92
2022-08-02T12:40:54.228Z,2.20
2022-08-02T12:43:24.732Z,2.10
2022-08-02T12:48:39.136Z,2.45
2022-08-02T12:51:20.958Z,2.00
2022-08-02T12:53:59.621Z,2.17
2022-08-02T12:56:29.810Z,2.17
2022-08-02T12:58:57.739Z,1.73
2022-08-02T13:01:27.467Z,2.05
2022-08-02T13:04:09.811Z,1.50
2022-08-02T13:06:44.392Z,1.80
2022-08-02T13:09:18.005Z,1.70
2022-08-02T13:11:46.487Z,1.80
2022-08-02T13:14:15.405Z,1.60
2022-08-02T13:16:44.986Z,1.60
2022-08-02T13:19:15.472Z,1.80
2022-08-02T13:22:01.271Z,1.67
2022-08-02T13:24:41.023Z,1.98
2022-08-02T13:27:22.300Z,1.60
2022-08-02T13:29:50.685Z,1.52
2022-08-02T13:32:19.008Z,3.67
2022-08-02T13:34:48.696Z,1.73
2022-08-02T13:37:16.679Z,2.05
2022-08-02T13:40:05.556Z,2.85
2022-08-02T13:42:33.277Z,1.60
2022-08-02T13:45:11.781Z,1.58
2022-08-02T13:48:04.244Z,1.83
2022-08-02T13:50:30.799Z,1.75
2022-08-02T13:52:58.588Z,1.70
2022-08-02T13:55:26.366Z,1.73
2022-08-02T13:57:54.531Z,1.60
2022-08-02T14:00:35.615Z,1.17
2022-08-02T14:03:05.330Z,3.28
2022-08-02T14:05:39.655Z,2.42
2022-08-02T14:08:16.861Z,1.50
2022-08-02T14:10:45.082Z,1.58
2022-08-02T14:13:12.873Z,1.65
2022-08-02T14:15:40.685Z,1.40
2022-08-02T14:18:08.435Z,1.80
2022-08-02T14:20:37.627Z,1.88
2022-08-02T14:23:05.413Z,1.40
2022-08-02T14:25:33.276Z,1.60
2022-08-02T14:28:01.081Z,1.80
2022-08-02T14:30:28.856Z,1.50
2022-08-02T14:32:57.324Z,1.58
2022-08-02T14:35:25.093Z,1.50
2022-08-02T14:37:54.394Z,1.75
2022-08-02T14:40:27.778Z,1.70
2022-08-02T14:42:56.107Z,1.50
2022-08-02T14:45:26.069Z,1.77
2022-08-02T14:48:05.167Z,1.70
2022-08-02T14:50:33.753Z,1.55
2022-08-02T14:53:02.973Z,1.83
2022-08-02T14:55:30.669Z,1.67
2022-08-02T14:57:58.444Z,1.70
2022-08-02T15:00:26.201Z,1.63
2022-08-02T15:02:56.681Z,1.80
2022-08-02T15:05:24.457Z,1.50
2022-08-02T15:07:52.249Z,1.30
2022-08-02T15:10:22.218Z,1.60
2022-08-02T15:12:49.967Z,1.70
2022-08-02T15:15:18.100Z,1.90
2022-08-02T15:17:45.822Z,1.67
2022-08-02T15:20:25.801Z,1.88
2022-08-02T15:22:54.092Z,1.85
2022-08-02T15:25:23.575Z,3.50
2022-08-02T15:27:51.338Z,1.65
2022-08-02T15:30:19.217Z,2.20
2022-08-02T15:32:53.479Z,2.72
2022-08-02T15:35:21.786Z,1.92
2022-08-02T15:37:49.691Z,2.03
2022-08-02T15:40:17.576Z,2.45
2022-08-02T15:42:46.769Z,1.83
2022-08-02T15:45:15.761Z,2.20
2022-08-02T15:47:50.459Z,1.98
2022-08-02T15:50:18.857Z,1.92
2022-08-02T15:52:46.627Z,2.05
2022-08-02T15:55:14.430Z,3.22
2022-08-02T15:57:42.170Z,2.03
2022-08-02T16:00:18.084Z,2.10
2022-08-02T16:02:47.493Z,2.60
2022-08-02T16:05:17.617Z,3.05
2022-08-02T16:07:45.495Z,2.15
2022-08-02T16:10:13.337Z,2.45
2022-08-02T16:12:41.169Z,2.03
2022-08-02T16:15:12.516Z,2.70
2022-08-02T16:17:48.558Z,2.00
2022-08-02T16:20:21.916Z,1.90
2022-08-02T16:22:49.651Z,3.00
2022-08-02T16:25:17.716Z,2.25
2022-08-02T16:27:59.284Z,2.70
2022-08-02T16:30:34.845Z,6.30
2022-08-02T16:33:02.788Z,3.00
2022-08-02T16:35:30.515Z,2.17
2022-08-02T16:37:58.358Z,2.47
2022-08-02T16:40:26.452Z,3.15
2022-08-02T16:42:54.177Z,1.83
2022-08-02T16:45:22.804Z,2.22
2022-08-02T16:47:56.465Z,2.10
2022-08-02T16:50:29.302Z,1.80
2022-08-02T16:52:58.534Z,3.10
2022-08-02T16:55:29.335Z,2.30
2022-08-02T16:57:58.874Z,2.00
2022-08-02T17:00:26.927Z,1.85
2022-08-02T17:02:59.648Z,2.08
2022-08-02T17:05:29.754Z,1.92
2022-08-02T17:08:17.277Z,2.00
2022-08-02T17:10:45.557Z,1.73
2022-08-02T17:13:13.330Z,2.17
2022-08-02T17:16:07.641Z,1.88
2022-08-02T17:18:30.845Z,2.05
2022-08-02T17:20:58.981Z,1.70
2022-08-02T17:24:04.498Z,2.58
2022-08-02T17:26:14.725Z,2.30
2022-08-02T17:29:06.935Z,2.63
2022-08-02T17:31:42.400Z,3.83
2022-08-02T17:34:12.909Z,1.93
2022-08-02T17:36:44.600Z,1.95
2022-08-02T17:39:17.397Z,2.00
2022-08-02T17:41:48.847Z,2.00
2022-08-02T17:44:36.997Z,1.90
2022-08-02T17:47:07.046Z,2.10
2022-08-02T17:49:42.640Z,2.45
2022-08-02T17:52:47.934Z,1.90
2022-08-02T17:54:59.600Z,1.95
2022-08-02T17:57:55.603Z,1.95
2022-08-02T18:00:16.444Z,3.28
2022-08-02T18:02:50.524Z,1.90
2022-08-02T18:05:39.374Z,1.90
2022-08-02T18:08:09.839Z,2.10
2022-08-02T18:10:39.297Z,2.03
2022-08-02T18:13:07.230Z,1.90
2022-08-02T18:15:35.701Z,2.40
2022-08-02T18:18:03.796Z,2.00
2022-08-02T18:20:33.165Z,1.90
2022-08-02T18:23:01.230Z,1.65
2022-08-02T18:25:37.267Z,1.92
2022-08-02T18:28:12.581Z,1.75
2022-08-02T18:30:40.635Z,2.10
2022-08-02T18:33:59.212Z,1.80
2022-08-02T18:35:57.881Z,1.90
2022-08-02T18:38:26.817Z,1.92
2022-08-02T18:40:55.694Z,1.83
2022-08-02T18:46:15.414Z,1.67
2022-08-02T18:48:46.674Z,2.10
2022-08-02T18:51:19.184Z,2.10
2022-08-02T18:53:50.910Z,2.03
2022-08-02T18:56:24.686Z,1.88
2022-08-02T18:58:53.290Z,2.05
2022-08-02T19:01:33.554Z,1.85
2022-08-02T19:04:04.636Z,1.65
2022-08-02T19:06:33.788Z,1.77
2022-08-02T19:09:11.110Z,2.17
2022-08-02T19:11:47.205Z,2.10
2022-08-02T19:14:19.365Z,2.15
2022-08-02T19:16:55.225Z,1.90
2022-08-02T19:19:23.309Z,1.90
2022-08-02T19:22:15.876Z,1.90
2022-08-02T19:24:51.639Z,2.00
2022-08-02T19:27:26.206Z,2.08
2022-08-02T19:30:02.278Z,1.93
2022-08-02T19:32:42.721Z,1.90
2022-08-02T19:35:30.428Z,1.65
2022-08-02T19:38:09.606Z,2.08
2022-08-02T19:40:38.657Z,2.50
2022-08-02T19:44:26.076Z,2.00
2022-08-02T19:45:57.183Z,2.20
2022-08-02T19:48:27.219Z,1.85
2022-08-02T19:51:00.529Z,2.20
2022-08-02T19:53:47.726Z,1.65
2022-08-02T19:56:20.083Z,2.00
2022-08-02T19:58:50.250Z,2.00
2022-08-02T20:01:26.961Z,2.25
2022-08-02T20:04:34.917Z,1.73
2022-08-02T20:07:04.829Z,2.63
2022-08-02T20:09:47.072Z,2.97
2022-08-02T20:12:15.376Z,2.10
2022-08-02T20:14:50.801Z,2.20
2022-08-02T20:17:20.840Z,2.00
2022-08-02T20:20:09.063Z,1.83
2022-08-02T20:22:58.666Z,2.33
2022-08-02T20:25:29.091Z,2.00
2022-08-02T20:27:57.111Z,2.10
2022-08-02T20:30:25.474Z,1.95
2022-08-02T20:32:58.873Z,2.08
2022-08-02T20:35:30.556Z,2.10
2022-08-02T20:38:02.883Z,2.05
2022-08-02T20:40:34.661Z,2.50
2022-08-02T20:43:02.841Z,2.03
2022-08-02T20:45:35.645Z,2.13
2022-08-02T20:48:03.587Z,2.35
2022-08-02T20:50:52.156Z,1.90
2022-08-02T20:53:24.103Z,2.17
2022-08-02T20:56:00.332Z,1.90
2022-08-02T20:58:28.192Z,2.20
2022-08-02T21:01:00.004Z,2.08
2022-08-02T21:03:39.439Z,2.13
2022-08-02T21:06:09.377Z,1.95
2022-08-02T21:08:38.380Z,2.13
2022-08-02T21:11:09.208Z,2.20
2022-08-02T21:13:47.105Z,2.13
2022-08-02T21:16:28.102Z,2.20
2022-08-02T21:19:00.234Z,2.20
2022-08-02T21:21:28.329Z,2.05
2022-08-02T21:23:57.609Z,2.22
2022-08-02T21:26:30.459Z,2.65
2022-08-02T21:29:00.962Z,2.13
2022-08-02T21:31:33.689Z,2.20
2022-08-02T21:34:04.034Z,2.10
2022-08-02T21:36:49.363Z,2.20
2022-08-02T21:39:18.433Z,2.00
2022-08-02T21:41:47.587Z,1.95
2022-08-02T21:44:16.345Z,2.10
2022-08-02T21:46:45.462Z,2.22
2022-08-02T21:49:13.819Z,2.58
2022-08-02T21:51:43.603Z,2.78
2022-08-02T21:54:19.563Z,2.28
2022-08-02T21:56:51.898Z,2.22
2022-08-02T22:02:09.169Z,2.53
2022-08-02T22:04:36.901Z,2.15
2022-08-02T22:07:04.674Z,2.50
2022-08-02T22:09:42.839Z,2.90
2022-08-02T22:12:17.981Z,2.92
2022-08-02T22:14:49.489Z,3.47
2022-08-02T22:17:50.655Z,3.03
2022-08-02T22:20:12.353Z,2.88
2022-08-02T22:22:40.618Z,3.05
2022-08-02T22:25:10.070Z,2.90
2022-08-02T22:28:36.192Z,2.53
2022-08-02T22:30:39.164Z,2.90
2022-08-02T22:33:33.148Z,3.78
2022-08-02T22:36:01.934Z,2.75
2022-08-02T22:38:29.987Z,2.80
2022-08-02T22:40:57.694Z,2.60
2022-08-02T22:43:26.779Z,3.30
2022-08-02T22:45:59.163Z,2.78
2022-08-02T22:48:27.382Z,2.97
2022-08-02T22:50:55.447Z,2.50
2022-08-02T22:53:24.716Z,3.20
2022-08-02T22:56:03.881Z,3.10
2022-08-02T22:58:33.817Z,2.50
2022-08-02T22:58:45.272Z,2.20
2022-08-02T23:01:01.852Z,2.90
2022-08-02T23:03:29.809Z,2.55
2022-08-02T23:05:57.969Z,2.50
2022-08-02T23:08:26.081Z,3.40
2022-08-02T23:10:53.996Z,2.53
2022-08-02T23:13:25.343Z,3.03
2022-08-02T23:16:14.752Z,2.97
2022-08-02T23:18:59.970Z,2.83
2022-08-02T23:22:01.115Z,3.20
2022-08-02T23:26:50.113Z,2.72
2022-08-02T23:29:17.809Z,2.70
2022-08-02T23:31:46.874Z,2.60
2022-08-02T23:34:14.586Z,2.85
2022-08-02T23:36:42.268Z,2.72
2022-08-02T23:39:10.125Z,2.58
2022-08-02T23:41:37.840Z,2.80
2022-08-02T23:44:14.511Z,2.90
2022-08-02T23:46:43.105Z,2.55
2022-08-02T23:49:13.681Z,2.70
2022-08-02T23:51:41.468Z,2.55
2022-08-02T23:54:09.364Z,3.10
2022-08-02T23:56:37.167Z,3.10
2022-08-02T23:59:05.444Z,2.80
